sensor_id;sensor_type;location;lat;lon;timestamp;P1;durP1;ratioP1;P2;durP2;ratioP2
62151;SDS011;48139;47.474;19.034;2022-07-06T03:47:41;7.70;;;5.25;;
62151;SDS011;48139;47.474;19.034;2022-07-06T03:50:45;10.20;;;6.40;;
62151;SDS011;48139;47.474;19.034;2022-07-06T03:53:47;8.13;;;5.33;;
62151;SDS011;48139;47.474;19.034;2022-07-06T03:56:50;7.32;;;4.95;;
62151;SDS011;48139;47.474;19.034;2022-07-06T03:59:56;7.60;;;5.62;;
62151;SDS011;48139;47.474;19.034;2022-07-06T04:03:00;9.00;;;5.57;;
62151;SDS011;48139;47.474;19.034;2022-07-06T04:06:03;8.80;;;5.15;;
62151;SDS011;48139;47.474;19.034;2022-07-06T04:09:07;7.68;;;5.53;;
62151;SDS011;48139;47.474;19.034;2022-07-06T04:12:10;8.00;;;5.53;;
62151;SDS011;48139;47.474;19.034;2022-07-06T04:15:17;8.98;;;5.62;;
62151;SDS011;48139;47.474;19.034;2022-07-06T04:18:20;8.50;;;5.78;;
62151;SDS011;48139;47.474;19.034;2022-07-06T04:21:24;10.45;;;5.00;;
62151;SDS011;48139;47.474;19.034;2022-07-06T04:24:27;9.00;;;5.72;;
62151;SDS011;48139;47.474;19.034;2022-07-06T04:27:29;8.73;;;5.65;;
62151;SDS011;48139;47.474;19.034;2022-07-06T04:30:32;8.82;;;5.25;;
62151;SDS011;48139;47.474;19.034;2022-07-06T04:33:35;7.18;;;4.90;;
62151;SDS011;48139;47.474;19.034;2022-07-06T04:36:39;8.82;;;5.37;;
62151;SDS011;48139;47.474;19.034;2022-07-06T04:39:41;9.27;;;5.77;;
62151;SDS011;48139;47.474;19.034;2022-07-06T04:42:44;8.40;;;4.78;;
62151;SDS011;48139;47.474;19.034;2022-07-06T04:45:48;7.80;;;4.68;;
62151;SDS011;48139;47.474;19.034;2022-07-06T04:48:50;7.20;;;4.70;;
62151;SDS011;48139;47.474;19.034;2022-07-06T04:51:53;7.75;;;5.25;;
62151;SDS011;48139;47.474;19.034;2022-07-06T04:54:56;7.90;;;5.72;;
62151;SDS011;48139;47.474;19.034;2022-07-06T04:57:59;7.68;;;4.97;;
62151;SDS011;48139;47.474;19.034;2022-07-06T05:01:02;17.35;;;8.05;;
62151;SDS011;48139;47.474;19.034;2022-07-06T05:04:05;7.05;;;4.93;;
62151;SDS011;48139;47.474;19.034;2022-07-06T05:07:08;8.00;;;5.25;;
62151;SDS011;48139;47.474;19.034;2022-07-06T05:10:11;6.95;;;4.57;;
62151;SDS011;48139;47.474;19.034;2022-07-06T05:13:14;8.00;;;5.55;;
62151;SDS011;48139;47.474;19.034;2022-07-06T05:16:17;6.50;;;4.75;;
62151;SDS011;48139;47.474;19.034;2022-07-06T05:22:23;8.82;;;5.72;;
62151;SDS011;48139;47.474;19.034;2022-07-06T05:25:27;6.80;;;4.45;;
62151;SDS011;48139;47.474;19.034;2022-07-06T05:28:30;7.70;;;4.85;;
62151;SDS011;48139;47.474;19.034;2022-07-06T05:31:38;7.60;;;5.12;;
62151;SDS011;48139;47.474;19.034;2022-07-06T05:34:41;6.53;;;4.60;;
62151;SDS011;48139;47.474;19.034;2022-07-06T05:40:47;7.55;;;5.07;;
62151;SDS011;48139;47.474;19.034;2022-07-06T05:43:50;7.57;;;4.72;;
62151;SDS011;48139;47.474;19.034;2022-07-06T05:46:53;7.78;;;4.68;;
62151;SDS011;48139;47.474;19.034;2022-07-06T05:50:16;7.85;;;4.95;;
62151;SDS011;48139;47.474;19.034;2022-07-06T05:53:19;9.60;;;5.20;;
62151;SDS011;48139;47.474;19.034;2022-07-06T05:56:22;6.37;;;4.05;;
62151;SDS011;48139;47.474;19.034;2022-07-06T05:59:26;8.80;;;4.65;;
62151;SDS011;48139;47.474;19.034;2022-07-06T06:02:40;7.32;;;3.97;;
62151;SDS011;48139;47.474;19.034;2022-07-06T06:05:44;6.97;;;4.90;;
62151;SDS011;48139;47.474;19.034;2022-07-06T06:08:47;7.05;;;4.75;;
62151;SDS011;48139;47.474;19.034;2022-07-06T06:11:50;8.05;;;3.87;;
62151;SDS011;48139;47.474;19.034;2022-07-06T06:14:53;7.50;;;4.70;;
62151;SDS011;48139;47.474;19.034;2022-07-06T06:17:55;8.27;;;4.32;;
62151;SDS011;48139;47.474;19.034;2022-07-06T06:20:58;7.00;;;4.45;;
62151;SDS011;48139;47.474;19.034;2022-07-06T06:24:00;11.32;;;4.95;;
62151;SDS011;48139;47.474;19.034;2022-07-06T06:27:03;5.57;;;3.50;;
62151;SDS011;48139;47.474;19.034;2022-07-06T06:30:06;8.93;;;5.35;;
62151;SDS011;48139;47.474;19.034;2022-07-06T06:33:10;8.63;;;5.25;;
62151;SDS011;48139;47.474;19.034;2022-07-06T06:36:14;8.02;;;5.45;;
62151;SDS011;48139;47.474;19.034;2022-07-06T06:39:16;10.80;;;4.82;;
62151;SDS011;48139;47.474;19.034;2022-07-06T06:42:19;7.43;;;4.57;;
62151;SDS011;48139;47.474;19.034;2022-07-06T06:45:22;7.97;;;4.95;;
62151;SDS011;48139;47.474;19.034;2022-07-06T06:48:25;8.73;;;4.18;;
62151;SDS011;48139;47.474;19.034;2022-07-06T06:51:28;6.35;;;3.87;;
62151;SDS011;48139;47.474;19.034;2022-07-06T06:54:30;6.47;;;4.15;;
62151;SDS011;48139;47.474;19.034;2022-07-06T06:57:33;7.20;;;4.82;;
62151;SDS011;48139;47.474;19.034;2022-07-06T07:00:36;9.57;;;4.50;;
62151;SDS011;48139;47.474;19.034;2022-07-06T07:03:38;7.80;;;5.57;;
62151;SDS011;48139;47.474;19.034;2022-07-06T07:06:41;9.68;;;5.50;;
62151;SDS011;48139;47.474;19.034;2022-07-06T07:09:43;6.62;;;4.05;;
62151;SDS011;48139;47.474;19.034;2022-07-06T07:12:46;9.23;;;4.80;;
62151;SDS011;48139;47.474;19.034;2022-07-06T07:15:49;6.90;;;4.78;;
62151;SDS011;48139;47.474;19.034;2022-07-06T07:21:55;7.60;;;4.37;;
62151;SDS011;48139;47.474;19.034;2022-07-06T07:24:57;8.07;;;4.72;;
62151;SDS011;48139;47.474;19.034;2022-07-06T07:28:00;7.18;;;4.60;;
62151;SDS011;48139;47.474;19.034;2022-07-06T07:31:04;7.60;;;3.75;;
62151;SDS011;48139;47.474;19.034;2022-07-06T07:34:06;7.62;;;4.93;;
62151;SDS011;48139;47.474;19.034;2022-07-06T07:37:09;10.52;;;5.07;;
62151;SDS011;48139;47.474;19.034;2022-07-06T07:40:12;6.68;;;3.92;;
62151;SDS011;48139;47.474;19.034;2022-07-06T07:43:14;8.90;;;3.85;;
62151;SDS011;48139;47.474;19.034;2022-07-06T07:46:17;9.40;;;4.22;;
62151;SDS011;48139;47.474;19.034;2022-07-06T07:49:19;6.00;;;3.58;;
62151;SDS011;48139;47.474;19.034;2022-07-06T07:52:23;7.22;;;4.07;;
62151;SDS011;48139;47.474;19.034;2022-07-06T07:55:25;6.28;;;3.33;;
62151;SDS011;48139;47.474;19.034;2022-07-06T07:58:43;7.68;;;3.40;;
62151;SDS011;48139;47.474;19.034;2022-07-06T08:01:46;6.68;;;3.90;;
62151;SDS011;48139;47.474;19.034;2022-07-06T08:04:49;7.40;;;4.53;;
62151;SDS011;48139;47.474;19.034;2022-07-06T08:07:52;5.85;;;3.92;;
62151;SDS011;48139;47.474;19.034;2022-07-06T08:10:54;7.53;;;3.47;;
62151;SDS011;48139;47.474;19.034;2022-07-06T08:14:17;10.05;;;3.90;;
62151;SDS011;48139;47.474;19.034;2022-07-06T08:17:19;7.93;;;3.80;;
62151;SDS011;48139;47.474;19.034;2022-07-06T08:20:22;5.50;;;3.42;;
62151;SDS011;48139;47.474;19.034;2022-07-06T08:23:31;6.20;;;3.62;;
62151;SDS011;48139;47.474;19.034;2022-07-06T08:26:36;4.18;;;2.50;;
62151;SDS011;48139;47.474;19.034;2022-07-06T08:29:39;6.05;;;3.28;;
62151;SDS011;48139;47.474;19.034;2022-07-06T08:32:42;10.65;;;4.32;;
62151;SDS011;48139;47.474;19.034;2022-07-06T08:39:07;5.22;;;2.60;;
62151;SDS011;48139;47.474;19.034;2022-07-06T08:42:10;7.85;;;3.87;;
62151;SDS011;48139;47.474;19.034;2022-07-06T08:45:17;7.45;;;4.05;;
62151;SDS011;48139;47.474;19.034;2022-07-06T08:51:24;5.90;;;3.60;;
62151;SDS011;48139;47.474;19.034;2022-07-06T08:54:31;6.72;;;4.45;;
62151;SDS011;48139;47.474;19.034;2022-07-06T09:00:37;13.53;;;3.67;;
62151;SDS011;48139;47.474;19.034;2022-07-06T09:03:41;6.75;;;3.40;;
62151;SDS011;48139;47.474;19.034;2022-07-06T09:06:45;7.37;;;3.40;;
62151;SDS011;48139;47.474;19.034;2022-07-06T09:09:49;6.20;;;3.33;;
62151;SDS011;48139;47.474;19.034;2022-07-06T09:12:53;6.47;;;3.28;;
62151;SDS011;48139;47.474;19.034;2022-07-06T09:16:13;8.10;;;3.87;;
62151;SDS011;48139;47.474;19.034;2022-07-06T09:19:39;8.23;;;3.00;;
62151;SDS011;48139;47.474;19.034;2022-07-06T09:22:43;5.68;;;3.40;;
62151;SDS011;48139;47.474;19.034;2022-07-06T09:25:49;13.77;;;3.75;;
62151;SDS011;48139;47.474;19.034;2022-07-06T09:28:52;7.43;;;3.30;;
62151;SDS011;48139;47.474;19.034;2022-07-06T09:31:59;7.12;;;3.70;;
62151;SDS011;48139;47.474;19.034;2022-07-06T09:35:02;5.30;;;3.20;;
62151;SDS011;48139;47.474;19.034;2022-07-06T09:38:13;8.85;;;3.55;;
62151;SDS011;48139;47.474;19.034;2022-07-06T09:41:29;8.20;;;4.03;;
62151;SDS011;48139;47.474;19.034;2022-07-06T09:44:36;6.82;;;4.30;;
62151;SDS011;48139;47.474;19.034;2022-07-06T09:47:46;6.60;;;3.85;;
62151;SDS011;48139;47.474;19.034;2022-07-06T09:50:53;5.40;;;3.55;;
62151;SDS011;48139;47.474;19.034;2022-07-06T09:53:59;6.45;;;3.97;;
62151;SDS011;48139;47.474;19.034;2022-07-06T09:57:02;5.95;;;3.55;;
62151;SDS011;48139;47.474;19.034;2022-07-06T10:00:10;6.45;;;3.67;;
62151;SDS011;48139;47.474;19.034;2022-07-06T10:03:17;5.37;;;3.03;;
62151;SDS011;48139;47.474;19.034;2022-07-06T10:06:19;6.03;;;3.28;;
62151;SDS011;48139;47.474;19.034;2022-07-06T10:09:24;6.12;;;3.55;;
62151;SDS011;48139;47.474;19.034;2022-07-06T10:12:28;6.18;;;3.97;;
62151;SDS011;48139;47.474;19.034;2022-07-06T10:15:32;7.75;;;3.67;;
62151;SDS011;48139;47.474;19.034;2022-07-06T10:18:36;6.87;;;3.28;;
62151;SDS011;48139;47.474;19.034;2022-07-06T10:21:39;5.72;;;3.37;;
62151;SDS011;48139;47.474;19.034;2022-07-06T10:24:42;7.55;;;3.87;;
62151;SDS011;48139;47.474;19.034;2022-07-06T10:27:46;9.45;;;3.70;;
62151;SDS011;48139;47.474;19.034;2022-07-06T10:30:49;6.62;;;4.07;;
62151;SDS011;48139;47.474;19.034;2022-07-06T10:33:54;8.13;;;3.50;;
62151;SDS011;48139;47.474;19.034;2022-07-06T10:36:59;7.20;;;5.07;;
62151;SDS011;48139;47.474;19.034;2022-07-06T10:40:05;6.05;;;3.45;;
62151;SDS011;48139;47.474;19.034;2022-07-06T10:46:40;5.95;;;3.00;;
62151;SDS011;48139;47.474;19.034;2022-07-06T10:53:01;5.00;;;3.05;;
62151;SDS011;48139;47.474;19.034;2022-07-06T10:56:05;7.10;;;3.47;;
62151;SDS011;48139;47.474;19.034;2022-07-06T11:02:16;5.55;;;3.17;;
62151;SDS011;48139;47.474;19.034;2022-07-06T11:05:39;5.70;;;3.30;;
62151;SDS011;48139;47.474;19.034;2022-07-06T11:09:09;6.93;;;3.60;;
62151;SDS011;48139;47.474;19.034;2022-07-06T11:18:50;6.95;;;3.72;;
62151;SDS011;48139;47.474;19.034;2022-07-06T11:22:08;6.70;;;3.58;;
62151;SDS011;48139;47.474;19.034;2022-07-06T11:25:12;8.20;;;3.83;;
62151;SDS011;48139;47.474;19.034;2022-07-06T11:28:15;6.40;;;3.28;;
62151;SDS011;48139;47.474;19.034;2022-07-06T11:31:20;5.72;;;3.10;;
62151;SDS011;48139;47.474;19.034;2022-07-06T11:34:27;7.15;;;3.60;;
62151;SDS011;48139;47.474;19.034;2022-07-06T11:37:31;8.38;;;3.92;;
62151;SDS011;48139;47.474;19.034;2022-07-06T11:40:37;8.05;;;3.42;;
62151;SDS011;48139;47.474;19.034;2022-07-06T11:43:40;6.50;;;3.60;;
62151;SDS011;48139;47.474;19.034;2022-07-06T11:46:47;5.75;;;3.47;;
62151;SDS011;48139;47.474;19.034;2022-07-06T11:49:51;9.23;;;3.50;;
62151;SDS011;48139;47.474;19.034;2022-07-06T11:52:54;5.90;;;3.45;;
62151;SDS011;48139;47.474;19.034;2022-07-06T11:56:01;6.10;;;3.37;;
62151;SDS011;48139;47.474;19.034;2022-07-06T11:59:08;5.78;;;3.08;;
62151;SDS011;48139;47.474;19.034;2022-07-06T12:02:14;6.87;;;3.42;;
62151;SDS011;48139;47.474;19.034;2022-07-06T12:05:29;5.55;;;2.90;;
62151;SDS011;48139;47.474;19.034;2022-07-06T12:08:40;8.35;;;3.28;;
62151;SDS011;48139;47.474;19.034;2022-07-06T12:11:49;5.90;;;3.30;;
62151;SDS011;48139;47.474;19.034;2022-07-06T12:14:51;6.07;;;3.45;;
62151;SDS011;48139;47.474;19.034;2022-07-06T12:17:55;6.20;;;3.35;;
62151;SDS011;48139;47.474;19.034;2022-07-06T12:21:00;11.88;;;4.05;;
62151;SDS011;48139;47.474;19.034;2022-07-06T12:24:05;6.47;;;3.62;;
62151;SDS011;48139;47.474;19.034;2022-07-06T12:27:11;5.32;;;3.15;;
62151;SDS011;48139;47.474;19.034;2022-07-06T12:30:15;6.00;;;3.42;;
62151;SDS011;48139;47.474;19.034;2022-07-06T12:33:24;6.25;;;3.75;;
62151;SDS011;48139;47.474;19.034;2022-07-06T12:36:29;8.00;;;3.85;;
62151;SDS011;48139;47.474;19.034;2022-07-06T12:39:39;6.60;;;3.80;;
62151;SDS011;48139;47.474;19.034;2022-07-06T12:42:47;7.45;;;3.58;;
62151;SDS011;48139;47.474;19.034;2022-07-06T12:45:50;9.75;;;5.00;;
62151;SDS011;48139;47.474;19.034;2022-07-06T12:48:53;10.27;;;3.15;;
62151;SDS011;48139;47.474;19.034;2022-07-06T12:55:01;5.53;;;3.28;;
62151;SDS011;48139;47.474;19.034;2022-07-06T12:58:12;11.77;;;3.62;;
62151;SDS011;48139;47.474;19.034;2022-07-06T13:01:20;6.40;;;3.92;;
62151;SDS011;48139;47.474;19.034;2022-07-06T13:07:27;8.13;;;2.75;;
62151;SDS011;48139;47.474;19.034;2022-07-06T13:10:32;8.45;;;3.60;;
62151;SDS011;48139;47.474;19.034;2022-07-06T13:13:44;5.30;;;2.58;;
62151;SDS011;48139;47.474;19.034;2022-07-06T13:16:46;4.97;;;2.78;;
62151;SDS011;48139;47.474;19.034;2022-07-06T13:19:52;5.12;;;3.15;;
62151;SDS011;48139;47.474;19.034;2022-07-06T13:23:02;6.25;;;2.72;;
62151;SDS011;48139;47.474;19.034;2022-07-06T13:26:05;7.18;;;2.67;;
62151;SDS011;48139;47.474;19.034;2022-07-06T13:29:09;6.30;;;2.70;;
62151;SDS011;48139;47.474;19.034;2022-07-06T13:32:13;9.05;;;3.30;;
62151;SDS011;48139;47.474;19.034;2022-07-06T13:35:16;5.85;;;2.37;;
62151;SDS011;48139;47.474;19.034;2022-07-06T13:38:20;5.25;;;2.90;;
62151;SDS011;48139;47.474;19.034;2022-07-06T13:41:23;4.53;;;2.60;;
62151;SDS011;48139;47.474;19.034;2022-07-06T13:47:27;6.50;;;3.05;;
62151;SDS011;48139;47.474;19.034;2022-07-06T13:53:34;6.75;;;3.30;;
62151;SDS011;48139;47.474;19.034;2022-07-06T13:56:39;5.18;;;2.60;;
62151;SDS011;48139;47.474;19.034;2022-07-06T13:59:41;5.62;;;2.70;;
62151;SDS011;48139;47.474;19.034;2022-07-06T14:02:45;10.32;;;3.50;;
62151;SDS011;48139;47.474;19.034;2022-07-06T14:05:48;6.68;;;2.95;;
62151;SDS011;48139;47.474;19.034;2022-07-06T14:08:50;5.10;;;3.33;;
62151;SDS011;48139;47.474;19.034;2022-07-06T14:11:54;8.60;;;3.25;;
62151;SDS011;48139;47.474;19.034;2022-07-06T14:14:56;10.75;;;2.95;;
62151;SDS011;48139;47.474;19.034;2022-07-06T14:21:01;4.93;;;2.63;;
62151;SDS011;48139;47.474;19.034;2022-07-06T14:24:05;8.35;;;2.92;;
62151;SDS011;48139;47.474;19.034;2022-07-06T14:27:08;3.45;;;2.15;;
62151;SDS011;48139;47.474;19.034;2022-07-06T14:33:13;4.45;;;2.40;;
62151;SDS011;48139;47.474;19.034;2022-07-06T14:36:17;4.65;;;2.20;;
62151;SDS011;48139;47.474;19.034;2022-07-06T14:39:19;5.10;;;2.83;;
62151;SDS011;48139;47.474;19.034;2022-07-06T14:42:22;36.72;;;6.50;;
62151;SDS011;48139;47.474;19.034;2022-07-06T14:45:25;6.22;;;2.30;;
62151;SDS011;48139;47.474;19.034;2022-07-06T14:48:28;3.60;;;2.12;;
62151;SDS011;48139;47.474;19.034;2022-07-06T14:51:33;4.68;;;2.45;;
62151;SDS011;48139;47.474;19.034;2022-07-06T14:54:36;5.95;;;2.78;;
62151;SDS011;48139;47.474;19.034;2022-07-06T14:57:38;4.95;;;2.05;;
62151;SDS011;48139;47.474;19.034;2022-07-06T15:03:43;4.18;;;1.80;;
62151;SDS011;48139;47.474;19.034;2022-07-06T15:09:58;2.00;;;1.50;;
62151;SDS011;48139;47.474;19.034;2022-07-06T15:13:00;2.12;;;1.55;;
62151;SDS011;48139;47.474;19.034;2022-07-06T15:16:03;2.97;;;1.60;;
62151;SDS011;48139;47.474;19.034;2022-07-06T15:19:06;2.95;;;1.62;;
62151;SDS011;48139;47.474;19.034;2022-07-06T15:22:10;3.90;;;1.40;;
62151;SDS011;48139;47.474;19.034;2022-07-06T15:25:13;2.83;;;1.77;;
62151;SDS011;48139;47.474;19.034;2022-07-06T15:31:21;4.80;;;1.83;;
62151;SDS011;48139;47.474;19.034;2022-07-06T15:34:24;3.53;;;2.10;;
62151;SDS011;48139;47.474;19.034;2022-07-06T15:37:27;2.75;;;1.70;;
62151;SDS011;48139;47.474;19.034;2022-07-06T15:40:29;4.03;;;1.90;;
